• Join FlightAware (Why Join?)
  • Login
  • US Flag 
02:45AM EST


 

Airport Tracker/Info


-or-


 

Live Flight TrackerFlight Track Log ✈ SWA4471 ✈ 12-Feb-2014 ✈ KBNA - KTPA

Flight Track Log - Related Links

Times and Time Zones

All times are in EST time to prevent confusion due to time zone crossing. See the SWA4471 flight status page for this flight to view local times or setup timezone preferences in your user account.

Time Position Orientation Groundspeed Altitude Reporting Facility
EST Latitude Longitude Course Direction KTS MPH feet Rate Location/Type
06:37PM 36.1500 -86.6500 58° Northeast 157 181 1,700  Level Nashville TRACON
06:38PM 36.1833 -86.5833 58° Northeast 199 229 4,000 1,232 Climbing Nashville TRACON
06:39PM 36.1642 -86.5489 125° Southeast 208 239 4,000 188 Level Memphis Center
06:40PM 36.1294 -86.4767 121° Southeast 242 278 4,300 2,129 Climbing Memphis Center
06:41PM 36.0556 -86.4511 164° South 268 308 8,400 3,145 Climbing Memphis Center
06:42PM 35.9739 -86.4533 181° South 285 328 10,800 2,780 Climbing Memphis Center
06:43PM 35.8744 -86.4556 181° South 337 388 14,100 2,976 Climbing Memphis Center
06:44PM 35.7731 -86.4578 181° South 354 407 16,900 3,097 Climbing Memphis Center
06:45PM 35.6489 -86.4481 176° South 375 432 20,500 3,024 Climbing Memphis Center
06:46PM 35.5439 -86.4239 169° South 378 435 23,100 2,341 Climbing Memphis Center
06:47PM 35.4342 -86.4019 171° South 390 449 25,300 1,983 Climbing Memphis Center
06:48PM 35.3417 -86.3683 163° South 398 458 27,000 1,759 Climbing Atlanta Center
06:49PM 35.2322 -86.3069 155° Southeast 409 471 28,700 2,400 Climbing Atlanta Center
06:50PM 35.1331 -86.2533 156° South 410 472 31,800 2,600 Climbing Atlanta Center
06:51PM 35.0317 -86.2000 157° South 405 466 33,900 1,750 Climbing Atlanta Center
06:52PM 34.9344 -86.1544 159° South 393 452 35,300 1,100 Climbing Atlanta Center
06:53PM 34.8286 -86.1086 160° South 393 452 36,100 900 Climbing Atlanta Center
06:54PM 34.7147 -86.0603 161° South 393 452 37,100 950 Climbing Atlanta Center
06:55PM 34.6050 -86.0122 160° South 406 467 38,000 950 Climbing Atlanta Center
06:56PM 34.4972 -85.9669 161° South 406 467 39,000 333 Climbing Atlanta Center
06:58PM 34.2814 -85.8792 161° South 406 467 39,000  Level Atlanta Center
06:59PM 34.1756 -85.8342 161° South 400 460 39,000  Level Atlanta Center
07:00PM 34.0739 -85.7919 161° South 395 455 39,000  Level Atlanta Center
07:01PM 33.9722 -85.7497 161° South 395 455 39,000  Level Atlanta Center
07:02PM 33.8644 -85.7075 162° South 401 461 39,000  Level Atlanta Center
07:03PM 33.7586 -85.6631 161° South 401 461 39,000  Level Atlanta Center
07:04PM 33.6547 -85.6211 161° South 401 461 39,000  Level Atlanta Center
07:05PM 33.5653 -85.5844 161° South 401 461 39,000  Level Atlanta Center
07:06PM 33.4617 -85.5403 160° South 396 456 39,000  Level Atlanta Center
07:07PM 33.3597 -85.4964 160° South 396 456 39,000  Level Atlanta Center
07:08PM 33.2581 -85.4572 162° South 391 450 39,000  Level Atlanta Center
07:09PM 33.1542 -85.4158 162° South 391 450 39,000  Level Atlanta Center
07:10PM 33.0419 -85.3622 158° South 391 450 39,000  Level Atlanta Center
07:11PM 32.9381 -85.3183 160° South 391 450 39,000  Level Atlanta Center
07:12PM 32.8342 -85.2775 162° South 391 450 39,000  Level Atlanta Center
07:13PM 32.7364 -85.2364 161° South 379 436 39,000  Level Atlanta Center
07:14PM 32.6367 -85.1956 161° South 384 442 39,000  Level Atlanta Center
07:15PM 32.5328 -85.1550 162° South 379 436 39,000  Level Atlanta Center
07:16PM 32.3792 -85.0917 161° South 380 437 39,000  Level Jacksonville Center
07:17PM 32.2797 -85.0550 163° South 380 437 39,000  Level Jacksonville Center
07:18PM 32.1822 -85.0133 160° South 380 437 39,000  Level Jacksonville Center
07:19PM 32.0847 -84.9744 161° South 380 437 39,000  Level Jacksonville Center
07:20PM 31.9850 -84.9378 163° South 380 437 39,000  Level Jacksonville Center
07:21PM 31.8875 -84.8964 160° South 380 437 39,000  Level Jacksonville Center
07:22PM 31.7922 -84.8603 162° South 375 432 39,000  Level Jacksonville Center
07:23PM 31.6925 -84.8214 162° South 375 432 39,000  Level Jacksonville Center
07:24PM 31.5969 -84.7831 161° South 375 432 39,000  Level Jacksonville Center
07:25PM 31.5017 -84.7444 161° South 375 432 39,000  Level Jacksonville Center
07:26PM 31.4061 -84.7083 162° South 369 425 39,000  Level Jacksonville Center
07:27PM 31.3086 -84.6700 161° South 364 419 39,000  Level Jacksonville Center
07:28PM 31.2131 -84.6319 161° South 364 419 39,000  Level Jacksonville Center
07:29PM 31.1175 -84.5936 161° South 364 419 39,000  Level Jacksonville Center
07:30PM 31.0239 -84.5581 162° South 364 419 39,000  Level Jacksonville Center
07:31PM 30.9283 -84.5200 161° South 359 413 39,000  Level Jacksonville Center
07:32PM 30.8369 -84.4844 162° South 359 413 39,000  Level Jacksonville Center
07:33PM 30.7456 -84.4492 162° South 359 413 39,000  Level Jacksonville Center
07:34PM 30.6519 -84.4139 162° South 359 413 39,000  Level Jacksonville Center
07:35PM 30.5606 -84.3761 160° South 359 413 39,000  Level Jacksonville Center
07:36PM 30.4797 -84.3267 152° Southeast 359 413 39,000  Level Jacksonville Center
07:37PM 30.3886 -84.2653 150° Southeast 364 419 39,000  Level Jacksonville Center
07:38PM 30.3014 -84.2061 150° Southeast 369 425 39,000  Level Jacksonville Center
07:39PM 30.2039 -84.1447 151° Southeast 369 425 39,000  Level Jacksonville Center
07:40PM 30.1106 -84.0836 150° Southeast 374 430 39,000  Level Jacksonville Center
07:41PM 30.0192 -84.0247 151° Southeast 374 430 39,000  Level Jacksonville Center
07:42PM 29.9258 -83.9664 152° Southeast 374 430 39,000  Level Jacksonville Center
07:43PM 29.8325 -83.9031 150° Southeast 374 430 39,000 -300 Level Jacksonville Center
07:44PM 29.7389 -83.8444 151° Southeast 379 436 38,400 -1,450 Descending Jacksonville Center
07:45PM 29.6475 -83.7839 150° Southeast 379 436 36,100 -2,200 Descending Jacksonville Center
07:46PM 29.5581 -83.7258 151° Southeast 374 430 34,000 -2,000 Descending Jacksonville Center
07:47PM 29.4708 -83.6703 151° Southeast 368 423 32,100 -1,850 Descending Jacksonville Center
07:48PM 29.3833 -83.6172 152° Southeast 368 423 30,300 -1,700 Descending Jacksonville Center
07:49PM 29.2919 -83.5569 150° Southeast 368 423 28,700 -1,750 Descending Jacksonville Center
07:50PM 29.1942 -83.4919 150° Southeast 386 444 26,800 -1,450 Descending Jacksonville Center
07:51PM 29.0983 -83.4319 151° Southeast 394 453 25,800 -1,000 Descending Jacksonville Center
07:52PM 29.0025 -83.3744 152° Southeast 394 453 24,800 -950 Descending Jacksonville Center
07:53PM 28.9067 -83.3147 151° Southeast 388 447 23,900 -1,600 Descending Jacksonville Center
07:54PM 28.8153 -83.2553 150° Southeast 388 447 21,600 -2,250 Descending Jacksonville Center
07:55PM 28.7256 -83.1981 151° Southeast 383 441 19,400 -2,408 Descending Jacksonville Center
07:57PM 28.6000 -83.1167 150° Southeast 366 421 15,700 -2,408 Descending Tampa TRACON
07:58PM 28.5000 -83.0500 150° Southeast 372 428 13,500 -1,450 Descending Tampa TRACON
07:59PM 28.4167 -83.0000 152° Southeast 331 381 12,800 -1,091 Descending Tampa TRACON
08:00PM 28.3500 -82.9500 147° Southeast 303 349 11,300 -1,537 Descending Tampa TRACON
08:01PM 28.2833 -82.9000 147° Southeast 330 380 9,700 -1,526 Descending Tampa TRACON
08:02PM 28.2667 -82.8000 101° East 338 389 8,400 -1,526 Descending Tampa TRACON
08:03PM 28.2333 -82.7167 114° Southeast 316 364 6,800 -1,700 Descending Tampa TRACON
08:04PM 28.1833 -82.6333 124° Southeast 304 350 5,000 -1,714 Descending Tampa TRACON
08:05PM 28.1500 -82.5500 114° Southeast 242 278 3,200 -1,286 Descending Tampa TRACON
08:06PM 28.1167 -82.5167 139° Southeast 143 165 2,300 -800 Descending Tampa TRACON
08:07PM 28.0667 -82.5333 196° South 136 157 1,600 -700 Descending Tampa TRACON
08:08PM 28.0333 -82.5333 180° South 126 145 900 -650 Descending Tampa TRACON
08:09PM 28.0000 -82.5333 180° South 119 137 300 -600 Descending Tampa TRACON